Time;durP1;ratioP1;P1;durP2;ratioP2;P2;SDS_P1;SDS_P2;PMS_P1;PMS_P2;Temp;Humidity;BMP_temperature;BMP_pressure;BME280_temperature;BME280_humidity;BME280_pressure;Samples;Min_cycle;Max_cycle;Signal;HPM_P1;HPM_P2
2023/01/10 00:00:36;;;;;;;2.70;0.90;;;26.30;99.90;;;;;;5033137;28;20198;-86
2023/01/10 00:03:07;;;;;;;2.08;0.85;;;26.40;99.90;;;;;;5031361;28;20198;-87
2023/01/10 00:05:38;;;;;;;3.13;0.80;;;26.60;99.90;;;;;;5022497;28;20615;-86
2023/01/10 00:08:16;;;;;;;1.65;0.80;;;26.60;99.90;;;;;;5026414;28;20193;-86
2023/01/10 00:10:47;;;;;;;2.17;0.65;;;26.50;99.90;;;;;;5031978;28;20222;-86
2023/01/10 00:13:23;;;;;;;0.75;0.50;;;26.80;99.90;;;;;;5026930;28;20309;-87
2023/01/10 00:15:58;;;;;;;2.13;0.63;;;26.80;99.90;;;;;;5029160;28;20614;-89
2023/01/10 00:18:30;;;;;;;2.10;0.55;;;26.80;99.90;;;;;;5033533;28;20252;-85
2023/01/10 00:21:08;;;;;;;1.67;0.60;;;26.60;99.90;;;;;;5031127;28;20752;-87
2023/01/10 00:23:39;;;;;;;2.65;0.80;;;26.60;99.90;;;;;;5029370;28;20218;-88
2023/01/10 00:26:18;;;;;;;0.90;0.50;;;26.60;99.90;;;;;;5028257;28;20632;-86
2023/01/10 00:28:49;;;;;;;3.75;1.02;;;26.80;99.90;;;;;;5032019;28;20271;-90
2023/01/10 00:31:22;;;;;;;2.58;0.70;;;26.80;99.90;;;;;;5031892;28;20281;-89
2023/01/10 00:33:52;;;;;;;2.85;0.70;;;26.70;99.90;;;;;;5030531;28;20218;-84
2023/01/10 00:36:23;;;;;;;2.63;0.88;;;26.80;99.90;;;;;;5032207;28;20777;-83
2023/01/10 00:38:54;;;;;;;3.13;0.90;;;26.90;99.90;;;;;;5031221;28;20568;-86
2023/01/10 00:44:11;;;;;;;1.90;0.80;;;27.00;99.90;;;;;;5030866;28;20327;-85
2023/01/10 00:46:44;;;;;;;3.33;0.85;;;27.00;99.90;;;;;;5032077;28;21749;-89
2023/01/10 00:49:18;;;;;;;1.73;0.80;;;26.90;99.90;;;;;;5030726;28;20268;-89
2023/01/10 00:51:49;;;;;;;2.58;0.70;;;26.80;99.90;;;;;;5022868;28;20201;-88
2023/01/10 00:57:18;;;;;;;1.88;1.20;;;26.60;99.90;;;;;;5027928;28;20210;-84
2023/01/10 00:59:49;;;;;;;2.45;1.13;;;26.70;99.90;;;;;;5035338;28;20205;-86
2023/01/10 01:02:25;;;;;;;2.25;0.80;;;26.70;99.90;;;;;;5034066;28;20198;-88
2023/01/10 01:04:55;;;;;;;1.17;0.70;;;26.80;99.90;;;;;;5035444;28;20252;-84
2023/01/10 01:07:26;;;;;;;1.58;0.70;;;26.90;99.90;;;;;;5034052;28;20202;-84
2023/01/10 01:12:48;;;;;;;3.97;0.77;;;27.00;99.90;;;;;;5035300;28;20213;-87
2023/01/10 01:15:19;;;;;;;2.97;0.88;;;26.80;99.90;;;;;;5035327;28;20218;-88
2023/01/10 01:17:52;;;;;;;2.60;0.82;;;26.60;99.90;;;;;;5035960;28;20186;-85
2023/01/10 01:20:22;;;;;;;2.65;0.60;;;26.60;99.90;;;;;;5023105;28;20273;-84
2023/01/10 01:22:53;;;;;;;1.60;0.70;;;26.70;99.90;;;;;;5033072;28;20202;-85
2023/01/10 01:25:24;;;;;;;1.88;0.70;;;26.50;99.90;;;;;;5032948;28;20669;-88
2023/01/10 01:27:55;;;;;;;1.40;0.55;;;26.70;99.90;;;;;;5036515;28;20281;-84
2023/01/10 01:30:26;;;;;;;3.22;0.80;;;26.70;99.90;;;;;;5034368;28;20285;-84
2023/01/10 01:33:05;;;;;;;1.60;0.68;;;26.80;99.90;;;;;;5030814;28;20202;-87
2023/01/10 01:35:36;;;;;;;2.15;0.70;;;26.90;99.90;;;;;;5031860;28;20222;-81
2023/01/10 01:38:07;;;;;;;1.75;0.65;;;26.80;99.90;;;;;;5026974;28;20194;-92
2023/01/10 01:40:40;;;;;;;2.05;0.60;;;26.70;99.90;;;;;;5029928;28;20653;-81
2023/01/10 01:43:23;;;;;;;5.38;0.80;;;26.60;99.90;;;;;;5020540;28;20607;-86
2023/01/10 01:45:55;;;;;;;3.00;0.80;;;26.60;99.90;;;;;;5031073;28;20198;-87
2023/01/10 01:48:40;;;;;;;2.00;0.82;;;26.50;99.90;;;;;;5030691;28;20309;-82
2023/01/10 01:51:17;;;;;;;2.17;0.73;;;26.60;99.90;;;;;;5029112;28;20277;-86
2023/01/10 01:53:54;;;;;;;1.40;0.77;;;26.80;99.90;;;;;;5019031;28;20217;-88
2023/01/10 01:56:27;;;;;;;2.25;0.70;;;26.70;99.90;;;;;;5033894;28;20229;-83
2023/01/10 01:59:20;;;;;;;1.95;0.70;;;26.80;99.90;;;;;;5032157;28;20720;-87
2023/01/10 02:01:54;;;;;;;1.20;0.52;;;26.80;99.90;;;;;;5033391;28;20202;-90
2023/01/10 02:04:33;;;;;;;3.95;0.98;;;26.80;99.90;;;;;;5034525;28;20209;-88
2023/01/10 02:07:04;;;;;;;2.50;0.80;;;26.70;99.90;;;;;;5035219;28;20237;-83
2023/01/10 02:09:43;;;;;;;2.65;0.70;;;26.80;99.90;;;;;;5028174;28;20190;-85
2023/01/10 02:12:23;;;;;;;2.63;0.80;;;26.80;99.90;;;;;;5027623;28;20214;-85
2023/01/10 02:14:55;;;;;;;4.53;0.80;;;26.60;99.90;;;;;;5031519;28;20230;-81
2023/01/10 02:17:26;;;;;;;3.55;0.95;;;26.50;99.90;;;;;;5034475;28;20583;-86
2023/01/10 02:20:02;;;;;;;2.38;0.88;;;26.50;99.90;;;;;;5029921;28;20619;-85
2023/01/10 02:23:07;;;;;;;1.40;0.70;;;26.40;99.90;;;;;;5031648;28;20194;-85
2023/01/10 02:26:17;;;;;;;1.33;0.60;;;26.20;99.90;;;;;;5032815;28;20210;-84
2023/01/10 02:29:23;;;;;;;2.13;0.60;;;26.30;99.90;;;;;;5028861;28;20198;-90
2023/01/10 02:32:29;;;;;;;2.47;0.60;;;26.20;99.90;;;;;;5035531;28;20275;-83
2023/01/10 02:35:21;;;;;;;3.05;0.80;;;26.20;99.90;;;;;;5032624;28;20229;-87
2023/01/10 02:38:10;;;;;;;2.25;0.70;;;26.20;99.90;;;;;;5029784;28;20742;-90
2023/01/10 02:40:53;;;;;;;1.45;0.57;;;26.00;99.90;;;;;;5033469;28;20244;-89
2023/01/10 02:46:33;;;;;;;1.40;0.50;;;26.00;99.90;;;;;;5028513;28;20221;-94
2023/01/10 02:49:05;;;;;;;1.15;0.50;;;26.20;99.90;;;;;;5020561;28;20241;-89
2023/01/10 02:51:40;;;;;;;1.45;0.52;;;26.20;99.90;;;;;;5034128;28;20564;-95
2023/01/10 02:54:20;;;;;;;1.20;0.60;;;26.20;99.90;;;;;;5034874;28;20205;-91
2023/01/10 02:57:50;;;;;;;1.15;0.52;;;26.40;99.90;;;;;;5031053;28;20202;-95
2023/01/10 03:00:46;;;;;;;1.17;0.57;;;26.10;99.90;;;;;;4954070;29;20209;-83
2023/01/10 03:03:32;;;;;;;3.13;0.65;;;26.00;99.90;;;;;;4952692;29;20200;-86
2023/01/10 03:06:20;;;;;;;2.33;0.57;;;26.10;99.90;;;;;;5014568;28;20209;-85
2023/01/10 03:08:58;;;;;;;1.67;0.70;;;26.10;99.90;;;;;;5030505;28;20253;-86
2023/01/10 03:11:43;;;;;;;2.13;0.60;;;26.20;99.90;;;;;;5034576;28;20277;-88
2023/01/10 03:14:19;;;;;;;2.65;0.52;;;26.20;99.90;;;;;;5030322;28;20918;-80
2023/01/10 03:16:53;;;;;;;1.40;0.55;;;26.20;99.90;;;;;;5027599;28;20294;-84
2023/01/10 03:19:34;;;;;;;2.40;0.60;;;26.30;99.90;;;;;;5031458;28;20209;-80
2023/01/10 03:22:17;;;;;;;0.88;0.57;;;26.20;99.90;;;;;;5030569;28;20277;-85
2023/01/10 03:24:50;;;;;;;0.57;0.47;;;26.10;99.90;;;;;;5022651;28;20217;-83
2023/01/10 03:27:27;;;;;;;1.23;0.60;;;26.10;99.90;;;;;;5030766;28;20621;-88
2023/01/10 03:30:07;;;;;;;2.10;0.65;;;25.90;99.90;;;;;;5032809;28;20233;-84
2023/01/10 03:32:50;;;;;;;1.23;0.40;;;25.90;99.90;;;;;;5031532;28;20205;-87
2023/01/10 03:35:29;;;;;;;0.70;0.60;;;25.90;99.90;;;;;;5033697;28;20222;-85
2023/01/10 03:38:08;;;;;;;0.70;0.50;;;25.80;99.90;;;;;;5016769;28;20597;-87
2023/01/10 03:40:45;;;;;;;1.50;0.47;;;25.90;99.90;;;;;;5031569;28;20654;-89
2023/01/10 03:46:11;;;;;;;2.85;0.73;;;25.90;99.90;;;;;;5027870;28;20712;-85
2023/01/10 03:48:46;;;;;;;2.35;0.50;;;25.90;99.90;;;;;;5032781;28;20304;-84
2023/01/10 03:51:19;;;;;;;1.25;0.55;;;25.90;99.90;;;;;;5033394;28;20194;-81
2023/01/10 03:53:52;;;;;;;1.85;0.45;;;26.00;99.90;;;;;;5033084;28;20226;-87
2023/01/10 03:56:23;;;;;;;0.82;0.47;;;25.80;99.90;;;;;;5030994;28;20693;-88
2023/01/10 03:58:54;;;;;;;3.17;0.70;;;25.70;99.90;;;;;;5022956;28;20321;-85
2023/01/10 04:01:30;;;;;;;2.47;0.68;;;25.60;99.90;;;;;;5025767;28;20286;-83
2023/01/10 04:04:01;;;;;;;1.05;0.45;;;25.60;99.90;;;;;;5029882;28;20232;-90
2023/01/10 04:06:32;;;;;;;1.83;0.57;;;25.60;99.90;;;;;;5033272;28;20191;-83
2023/01/10 04:09:04;;;;;;;4.20;0.60;;;25.60;99.90;;;;;;5033348;28;20654;-80
2023/01/10 04:11:35;;;;;;;2.10;0.55;;;25.70;99.90;;;;;;5032874;28;20697;-87
2023/01/10 04:14:06;;;;;;;1.08;0.60;;;25.60;99.90;;;;;;5033558;28;20278;-83
2023/01/10 04:16:37;;;;;;;19.52;3.53;;;25.50;99.90;;;;;;5033126;28;20540;-84
2023/01/10 04:19:08;;;;;;;2.25;0.60;;;25.50;99.90;;;;;;5032166;28;20198;-84
2023/01/10 04:21:39;;;;;;;1.02;0.50;;;25.40;99.90;;;;;;5031352;28;20575;-87
2023/01/10 04:24:12;;;;;;;0.82;0.40;;;25.40;99.90;;;;;;5033146;28;20277;-78
2023/01/10 04:26:43;;;;;;;2.78;0.68;;;25.40;99.90;;;;;;5032965;28;20232;-84
2023/01/10 04:29:14;;;;;;;1.08;0.60;;;25.40;99.90;;;;;;5030882;28;20191;-85
2023/01/10 04:31:45;;;;;;;1.90;0.55;;;25.50;99.90;;;;;;5029198;28;20212;-86
2023/01/10 04:34:20;;;;;;;2.17;0.50;;;25.50;99.90;;;;;;5034741;28;20293;-92
2023/01/10 04:36:51;;;;;;;2.10;0.50;;;25.40;99.90;;;;;;5032656;28;20228;-83
2023/01/10 04:39:27;;;;;;;1.38;0.52;;;25.40;99.90;;;;;;5036552;28;20233;-86
2023/01/10 04:41:58;;;;;;;2.33;0.70;;;25.40;99.90;;;;;;5035991;28;20725;-91
2023/01/10 04:44:29;;;;;;;2.50;0.55;;;25.40;99.90;;;;;;5033912;28;20215;-88
2023/01/10 04:47:00;;;;;;;2.53;0.70;;;25.40;99.90;;;;;;5031936;28;20230;-86
2023/01/10 04:49:32;;;;;;;0.98;0.50;;;25.50;99.90;;;;;;5034507;28;20197;-84
2023/01/10 04:52:03;;;;;;;2.33;0.60;;;25.50;99.90;;;;;;5029572;28;20194;-86
2023/01/10 04:54:35;;;;;;;1.05;0.40;;;25.40;99.90;;;;;;5036435;28;20280;-86
2023/01/10 04:57:06;;;;;;;1.95;0.50;;;25.40;99.90;;;;;;5035647;28;20634;-84
2023/01/10 04:59:37;;;;;;;1.65;0.47;;;25.50;99.90;;;;;;5036854;28;20288;-83
2023/01/10 05:02:08;;;;;;;2.05;0.60;;;25.40;99.90;;;;;;5034672;28;20202;-86
2023/01/10 05:04:39;;;;;;;1.80;0.50;;;25.30;99.90;;;;;;5035841;28;20281;-84
2023/01/10 05:07:10;;;;;;;1.23;0.50;;;25.20;99.90;;;;;;5037003;28;20618;-84
2023/01/10 05:09:43;;;;;;;1.90;0.60;;;25.00;99.90;;;;;;5028936;28;20293;-82
2023/01/10 05:12:14;;;;;;;2.05;0.70;;;24.90;99.90;;;;;;5030946;28;20198;-87
2023/01/10 05:14:45;;;;;;;2.75;0.60;;;24.80;99.90;;;;;;5035228;28;20195;-83
2023/01/10 05:17:16;;;;;;;1.25;0.60;;;24.80;99.90;;;;;;5033166;28;20225;-86
2023/01/10 05:19:50;;;;;;;1.25;0.40;;;24.80;99.90;;;;;;5036144;28;20201;-84
2023/01/10 05:22:21;;;;;;;2.42;0.50;;;24.90;99.90;;;;;;5033899;28;20190;-86
2023/01/10 05:24:58;;;;;;;1.45;0.47;;;24.80;99.90;;;;;;5030418;28;20209;-86
2023/01/10 05:27:29;;;;;;;2.45;0.50;;;24.80;99.90;;;;;;5031122;28;20213;-83
2023/01/10 05:30:00;;;;;;;0.73;0.50;;;24.80;99.90;;;;;;5032060;28;20214;-86
2023/01/10 05:32:32;;;;;;;1.38;0.50;;;24.70;99.90;;;;;;5034839;28;20206;-84
2023/01/10 05:35:03;;;;;;;1.13;0.50;;;24.60;99.90;;;;;;5034421;28;20218;-86
2023/01/10 05:37:34;;;;;;;1.75;0.70;;;24.60;99.90;;;;;;5035671;28;20191;-83
2023/01/10 05:40:08;;;;;;;2.15;0.57;;;24.60;99.90;;;;;;5034862;28;20206;-83
2023/01/10 05:42:39;;;;;;;1.77;0.73;;;24.50;99.90;;;;;;5033455;28;20198;-81
2023/01/10 05:45:11;;;;;;;2.10;0.40;;;24.50;99.90;;;;;;5032121;28;20616;-81
2023/01/10 05:47:42;;;;;;;1.88;0.40;;;24.50;99.90;;;;;;5020999;28;20238;-85
2023/01/10 05:50:14;;;;;;;1.75;0.43;;;24.50;99.90;;;;;;5035824;28;20206;-85
2023/01/10 05:52:45;;;;;;;2.03;0.50;;;24.40;99.90;;;;;;5034634;28;20186;-88
2023/01/10 05:55:18;;;;;;;2.15;0.40;;;24.40;99.90;;;;;;5035476;28;20215;-83
2023/01/10 05:57:49;;;;;;;2.55;0.60;;;24.40;99.90;;;;;;5036190;28;20286;-86
2023/01/10 06:00:21;;;;;;;1.83;0.45;;;24.40;99.90;;;;;;5035664;28;20201;-89
2023/01/10 06:02:52;;;;;;;0.57;0.25;;;24.40;99.90;;;;;;5034900;28;20190;-86
2023/01/10 06:05:23;;;;;;;0.88;0.30;;;24.50;99.90;;;;;;5035405;28;20191;-81
2023/01/10 06:07:55;;;;;;;1.80;0.30;;;24.40;99.90;;;;;;5035393;28;20563;-86
2023/01/10 06:10:37;;;;;;;1.35;0.50;;;24.40;99.90;;;;;;5035220;28;20205;-85
2023/01/10 06:13:11;;;;;;;0.50;0.40;;;24.40;99.90;;;;;;5035233;28;20218;-83
2023/01/10 06:15:42;;;;;;;1.27;0.30;;;24.30;99.90;;;;;;5034127;28;20221;-86
2023/01/10 06:18:14;;;;;;;1.95;0.40;;;24.30;99.90;;;;;;5024655;28;20203;-83
2023/01/10 06:20:45;;;;;;;1.65;0.30;;;24.30;99.90;;;;;;5026278;28;20191;-84
2023/01/10 06:23:16;;;;;;;1.67;0.30;;;24.40;99.90;;;;;;5035187;28;20190;-88
2023/01/10 06:25:49;;;;;;;0.93;0.50;;;24.30;99.90;;;;;;5035222;28;20183;-84
2023/01/10 06:28:20;;;;;;;0.90;0.40;;;24.20;99.90;;;;;;5035290;28;20202;-84
2023/01/10 06:30:51;;;;;;;1.73;0.40;;;24.30;99.90;;;;;;5034702;28;20190;-84
2023/01/10 06:33:23;;;;;;;1.92;0.40;;;24.30;99.90;;;;;;5034534;28;20182;-85
2023/01/10 06:35:54;;;;;;;1.27;0.38;;;24.30;99.90;;;;;;5034919;28;20297;-84
2023/01/10 06:38:25;;;;;;;1.92;0.50;;;24.30;99.90;;;;;;5032697;28;20205;-81
2023/01/10 06:41:11;;;;;;;1.30;0.40;;;24.20;99.90;;;;;;5034529;28;20189;-83
2023/01/10 06:43:44;;;;;;;0.75;0.30;;;24.20;99.90;;;;;;5035469;28;20649;-88
2023/01/10 06:46:15;;;;;;;1.00;0.50;;;24.10;99.90;;;;;;5034560;28;20222;-84
2023/01/10 06:48:50;;;;;;;1.02;0.40;;;24.10;99.90;;;;;;5034979;28;20234;-82
2023/01/10 06:51:24;;;;;;;1.73;0.40;;;24.10;99.90;;;;;;5034319;28;20634;-88
2023/01/10 06:53:55;;;;;;;0.40;0.30;;;24.10;99.90;;;;;;5034102;28;20225;-85
2023/01/10 06:56:29;;;;;;;1.30;0.50;;;24.10;99.90;;;;;;5031507;28;20218;-86
2023/01/10 06:59:00;;;;;;;1.27;0.50;;;24.10;99.90;;;;;;5028851;28;20232;-86
2023/01/10 07:01:31;;;;;;;3.20;0.55;;;24.10;99.90;;;;;;5022534;28;20206;-81
2023/01/10 07:04:02;;;;;;;2.70;0.68;;;24.10;99.90;;;;;;5024797;28;20617;-84
2023/01/10 07:06:33;;;;;;;1.38;0.35;;;24.00;99.90;;;;;;5028693;28;20272;-82
2023/01/10 07:09:04;;;;;;;3.08;0.35;;;24.00;99.90;;;;;;5033293;28;20658;-83
2023/01/10 07:11:38;;;;;;;0.50;0.40;;;23.90;99.90;;;;;;5034669;28;20201;-90
2023/01/10 07:14:09;;;;;;;2.65;0.40;;;23.90;99.90;;;;;;5033466;28;20196;-85
2023/01/10 07:16:41;;;;;;;4.72;0.60;;;23.90;99.90;;;;;;5026741;28;20246;-86
2023/01/10 07:19:12;;;;;;;0.57;0.40;;;24.00;99.90;;;;;;5024888;28;20285;-86
2023/01/10 07:21:43;;;;;;;1.85;0.50;;;24.10;99.90;;;;;;5029530;28;20329;-84
2023/01/10 07:24:14;;;;;;;1.73;0.30;;;24.00;99.90;;;;;;5032252;28;20202;-83
2023/01/10 07:26:47;;;;;;;1.55;0.40;;;24.00;99.90;;;;;;5034418;28;20200;-82
2023/01/10 07:29:18;;;;;;;1.92;0.35;;;23.80;99.90;;;;;;5026872;28;20205;-84
2023/01/10 07:31:50;;;;;;;2.63;0.50;;;23.80;99.90;;;;;;5030740;28;20197;-83
2023/01/10 07:34:21;;;;;;;1.50;0.50;;;23.70;99.90;;;;;;5021857;28;20203;-85
2023/01/10 07:36:52;;;;;;;1.00;0.40;;;23.70;99.90;;;;;;5025211;28;20222;-86
2023/01/10 07:39:23;;;;;;;1.63;0.50;;;23.60;99.90;;;;;;5031181;28;20198;-84
2023/01/10 07:41:56;;;;;;;2.47;0.60;;;23.40;99.90;;;;;;5028811;28;20198;-80
2023/01/10 07:44:27;;;;;;;2.40;0.47;;;23.30;99.90;;;;;;5033175;28;20190;-85
2023/01/10 07:46:58;;;;;;;2.05;0.50;;;23.30;99.90;;;;;;5030314;28;20206;-86
2023/01/10 07:49:30;;;;;;;1.10;0.40;;;23.30;99.90;;;;;;5031706;28;20226;-86
2023/01/10 07:52:01;;;;;;;1.10;0.43;;;23.30;99.90;;;;;;5025539;28;20245;-85
2023/01/10 07:54:32;;;;;;;1.48;0.55;;;23.30;99.90;;;;;;5030642;28;20195;-83
2023/01/10 07:57:05;;;;;;;1.08;0.50;;;23.30;99.90;;;;;;5028598;28;20221;-84
2023/01/10 07:59:36;;;;;;;0.52;0.40;;;23.40;99.90;;;;;;5032278;28;20190;-83
2023/01/10 08:02:07;;;;;;;0.77;0.40;;;23.40;99.90;;;;;;5030724;28;20286;-82
2023/01/10 08:04:39;;;;;;;2.10;0.50;;;23.40;99.90;;;;;;5032175;28;20717;-85
2023/01/10 08:07:10;;;;;;;2.35;0.60;;;23.40;99.90;;;;;;5028723;28;20198;-83
2023/01/10 08:09:41;;;;;;;2.13;0.60;;;23.40;99.90;;;;;;5028594;28;20198;-87
2023/01/10 08:12:14;;;;;;;1.30;0.60;;;23.30;99.90;;;;;;5032020;28;20208;-84
2023/01/10 08:14:45;;;;;;;2.17;0.68;;;23.30;99.90;;;;;;5016133;28;20198;-87
2023/01/10 08:17:16;;;;;;;4.65;0.70;;;23.20;99.90;;;;;;5024777;28;20935;-83
2023/01/10 08:19:47;;;;;;;2.75;0.50;;;23.00;99.90;;;;;;5031495;28;20237;-90
2023/01/10 08:22:18;;;;;;;1.83;0.60;;;23.00;99.90;;;;;;5031631;28;20285;-85
2023/01/10 08:24:50;;;;;;;1.77;0.60;;;22.90;99.90;;;;;;5029101;28;20208;-83
2023/01/10 08:27:23;;;;;;;1.95;0.55;;;22.90;99.90;;;;;;5029302;28;20208;-83
2023/01/10 08:29:54;;;;;;;2.30;0.80;;;22.80;99.90;;;;;;5028060;28;20198;-85
2023/01/10 08:32:25;;;;;;;2.78;0.80;;;22.80;99.90;;;;;;5032759;28;20198;-84
2023/01/10 08:34:56;;;;;;;2.65;0.90;;;22.70;99.90;;;;;;5023347;28;20244;-83
2023/01/10 08:37:27;;;;;;;1.80;0.47;;;22.60;99.90;;;;;;5022545;28;20218;-80
2023/01/10 08:39:58;;;;;;;2.97;0.73;;;22.60;99.90;;;;;;5031398;28;20254;-85
2023/01/10 08:42:32;;;;;;;1.83;0.55;;;22.50;99.90;;;;;;5032111;28;20594;-86
2023/01/10 08:45:03;;;;;;;1.10;0.50;;;22.50;99.90;;;;;;5013245;28;20225;-87
2023/01/10 08:47:35;;;;;;;3.22;1.00;;;22.50;99.90;;;;;;5024967;28;20242;-89
2023/01/10 08:50:06;;;;;;;2.90;0.60;;;22.40;99.90;;;;;;5032541;28;20194;-86
2023/01/10 08:52:38;;;;;;;1.63;0.40;;;22.30;99.90;;;;;;5028403;28;20273;-87
2023/01/10 08:55:10;;;;;;;1.55;0.50;;;22.30;99.90;;;;;;5027855;28;20989;-86
2023/01/10 08:57:57;;;;;;;1.75;0.60;;;22.30;99.90;;;;;;5026616;28;20708;-88
2023/01/10 09:00:28;;;;;;;1.25;0.40;;;22.30;99.90;;;;;;5025035;28;20202;-86
2023/01/10 09:02:59;;;;;;;1.38;0.65;;;22.30;99.90;;;;;;5027305;28;20209;-87
2023/01/10 09:05:36;;;;;;;2.25;0.80;;;22.20;99.90;;;;;;5029753;28;20240;-86
2023/01/10 09:08:08;;;;;;;1.50;0.55;;;22.20;99.90;;;;;;5024163;28;20201;-88
2023/01/10 09:10:39;;;;;;;1.30;0.68;;;22.20;99.90;;;;;;5030456;28;20218;-88
2023/01/10 09:13:12;;;;;;;1.45;0.70;;;22.20;99.90;;;;;;5024248;28;20276;-88
2023/01/10 09:15:45;;;;;;;1.38;0.63;;;22.20;99.90;;;;;;5030805;28;20256;-87
2023/01/10 09:18:16;;;;;;;3.08;0.80;;;22.20;99.90;;;;;;5025477;28;20745;-88
2023/01/10 09:20:48;;;;;;;2.72;0.70;;;22.20;99.90;;;;;;5038853;28;20256;-87
2023/01/10 09:23:27;;;;;;;2.60;0.68;;;22.20;99.90;;;;;;5034527;28;20288;-89
2023/01/10 09:25:58;;;;;;;4.68;0.55;;;22.20;99.90;;;;;;5037148;28;20237;-88
2023/01/10 09:28:31;;;;;;;1.65;0.55;;;22.20;99.90;;;;;;5036440;28;20256;-86
2023/01/10 09:31:04;;;;;;;4.78;0.73;;;22.20;99.90;;;;;;5035732;28;20293;-87
2023/01/10 09:33:35;;;;;;;2.22;0.80;;;22.20;99.90;;;;;;5035892;28;20201;-87
2023/01/10 09:36:07;;;;;;;3.22;0.60;;;22.20;99.90;;;;;;5034549;28;20228;-87
2023/01/10 09:38:39;;;;;;;2.05;0.50;;;22.20;99.90;;;;;;5035942;28;20203;-86
2023/01/10 09:41:25;;;;;;;3.67;0.50;;;22.10;99.90;;;;;;5036349;28;20201;-87
2023/01/10 09:44:05;;;;;;;1.27;0.50;;;22.10;99.90;;;;;;5035600;28;20196;-86
2023/01/10 09:46:49;;;;;;;1.92;0.70;;;22.10;99.90;;;;;;5028405;28;20322;-91
2023/01/10 09:49:27;;;;;;;3.42;0.90;;;22.10;99.90;;;;;;5035938;28;20256;-86
2023/01/10 09:52:00;;;;;;;1.33;0.50;;;22.00;99.90;;;;;;5035373;28;20194;-87
2023/01/10 09:54:34;;;;;;;3.70;0.60;;;22.00;99.90;;;;;;5035457;28;20239;-87
2023/01/10 09:57:06;;;;;;;2.22;0.60;;;22.00;99.90;;;;;;5029371;28;20243;-87
2023/01/10 09:59:44;;;;;;;4.07;0.70;;;21.90;99.90;;;;;;5027074;28;20198;-86
2023/01/10 10:02:31;;;;;;;1.40;0.50;;;21.90;99.90;;;;;;5022966;28;20206;-85
2023/01/10 10:05:13;;;;;;;1.27;0.60;;;21.90;99.90;;;;;;5011200;28;20198;-83
2023/01/10 10:07:44;;;;;;;1.92;0.80;;;21.80;99.90;;;;;;5024441;28;20206;-86
2023/01/10 10:10:23;;;;;;;3.03;0.70;;;21.90;99.90;;;;;;5028233;28;20273;-85
2023/01/10 10:13:06;;;;;;;1.83;0.57;;;21.90;99.90;;;;;;5032788;28;20316;-86
2023/01/10 10:15:46;;;;;;;2.05;0.52;;;21.80;99.90;;;;;;5034037;28;20280;-85
2023/01/10 10:18:28;;;;;;;2.47;0.60;;;21.90;99.90;;;;;;5032907;28;20301;-85
2023/01/10 10:21:06;;;;;;;1.63;0.70;;;21.90;99.90;;;;;;5031694;28;20289;-89
2023/01/10 10:23:59;;;;;;;1.35;0.45;;;21.90;99.90;;;;;;5024963;28;20233;-84
2023/01/10 10:26:37;;;;;;;2.17;0.50;;;21.90;99.90;;;;;;5035173;28;20192;-85
2023/01/10 10:29:38;;;;;;;0.82;0.47;;;21.80;99.90;;;;;;5034888;28;20190;-84
2023/01/10 10:32:46;;;;;;;1.58;0.40;;;21.80;99.90;;;;;;5032848;28;20201;-85
2023/01/10 10:35:27;;;;;;;1.45;0.50;;;21.80;99.90;;;;;;4994050;28;20203;-87
2023/01/10 10:38:00;;;;;;;2.50;0.45;;;21.80;99.90;;;;;;5032406;28;20214;-86
2023/01/10 10:40:35;;;;;;;2.92;0.50;;;21.70;99.90;;;;;;5030655;28;20209;-86
2023/01/10 10:43:18;;;;;;;2.17;0.68;;;21.70;99.90;;;;;;5034425;28;20290;-83
2023/01/10 10:45:54;;;;;;;1.83;0.50;;;21.70;99.90;;;;;;5034660;28;20190;-84
2023/01/10 10:48:29;;;;;;;1.55;0.63;;;21.70;99.90;;;;;;5034403;28;20236;-83
2023/01/10 10:51:10;;;;;;;2.40;0.40;;;21.70;99.90;;;;;;5033684;28;20221;-85
2023/01/10 10:53:41;;;;;;;0.70;0.40;;;21.70;99.90;;;;;;5034288;28;20206;-84
2023/01/10 10:56:17;;;;;;;1.08;0.50;;;21.70;99.90;;;;;;5016390;28;20206;-83
2023/01/10 10:58:56;;;;;;;0.73;0.40;;;21.70;99.90;;;;;;5032168;28;20305;-83
2023/01/10 11:01:27;;;;;;;1.77;0.50;;;21.70;99.90;;;;;;5030200;28;20204;-84
2023/01/10 11:04:02;;;;;;;1.63;0.40;;;21.70;99.90;;;;;;5025297;28;20676;-83
2023/01/10 11:06:39;;;;;;;2.00;0.60;;;21.70;99.90;;;;;;5025754;28;20284;-83
2023/01/10 11:09:11;;;;;;;1.15;0.50;;;21.70;99.90;;;;;;5037659;28;20186;-83
2023/01/10 11:11:49;;;;;;;1.95;0.50;;;21.70;99.90;;;;;;5032914;28;20301;-84
2023/01/10 11:14:44;;;;;;;2.30;0.60;;;21.70;99.90;;;;;;5034185;28;20205;-85
2023/01/10 11:17:24;;;;;;;1.67;0.80;;;21.80;99.90;;;;;;5033979;28;20214;-84
2023/01/10 11:20:16;;;;;;;2.65;0.50;;;21.80;99.90;;;;;;5033901;28;20202;-85
2023/01/10 11:22:53;;;;;;;1.98;0.52;;;21.80;99.90;;;;;;5033906;28;20300;-84
2023/01/10 11:25:26;;;;;;;3.28;0.60;;;21.90;99.90;;;;;;5033738;28;20634;-85
2023/01/10 11:27:59;;;;;;;1.30;0.40;;;21.90;99.90;;;;;;5033824;28;20281;-86
2023/01/10 11:30:33;;;;;;;1.42;0.55;;;21.90;99.90;;;;;;5034286;28;20229;-86
2023/01/10 11:33:07;;;;;;;0.90;0.43;;;21.90;99.90;;;;;;5033315;28;20594;-85
2023/01/10 11:35:40;;;;;;;1.90;0.68;;;21.90;99.90;;;;;;5033727;28;20624;-86
2023/01/10 11:38:27;;;;;;;1.85;0.50;;;21.90;99.90;;;;;;5033546;28;20225;-85
2023/01/10 11:41:00;;;;;;;0.88;0.40;;;21.90;99.90;;;;;;5013811;28;20227;-85
2023/01/10 11:43:34;;;;;;;2.05;0.55;;;21.80;99.90;;;;;;5013933;28;20273;-84
2023/01/10 11:46:08;;;;;;;2.17;0.50;;;21.80;99.90;;;;;;5033699;28;20197;-84
2023/01/10 11:48:51;;;;;;;1.77;0.40;;;21.80;99.90;;;;;;5033058;28;20229;-83
2023/01/10 11:51:26;;;;;;;1.90;0.50;;;21.80;99.90;;;;;;5014078;28;20198;-84
2023/01/10 11:54:02;;;;;;;1.95;0.40;;;21.80;99.90;;;;;;5018670;28;20206;-84
2023/01/10 11:56:36;;;;;;;1.25;0.50;;;21.80;99.90;;;;;;5033464;28;20189;-84
2023/01/10 11:59:14;;;;;;;0.80;0.50;;;21.80;99.90;;;;;;5033495;28;20190;-84
2023/01/10 12:01:48;;;;;;;1.95;0.55;;;21.80;99.90;;;;;;5033404;28;20291;-85
2023/01/10 12:04:21;;;;;;;3.58;0.50;;;21.80;99.90;;;;;;5033396;28;20277;-85
2023/01/10 12:06:55;;;;;;;1.42;0.40;;;21.80;99.90;;;;;;5033565;28;20201;-84
2023/01/10 12:09:42;;;;;;;0.40;0.32;;;21.80;99.90;;;;;;5033483;28;20194;-84
2023/01/10 12:12:21;;;;;;;1.13;0.50;;;21.80;99.90;;;;;;5032988;28;20202;-84
2023/01/10 12:14:54;;;;;;;2.25;0.68;;;21.80;99.90;;;;;;5031270;28;20248;-85
2023/01/10 12:17:30;;;;;;;2.38;0.60;;;21.80;99.90;;;;;;5025873;28;20226;-85
2023/01/10 12:20:02;;;;;;;2.13;0.40;;;21.80;99.90;;;;;;5031346;28;20285;-85
2023/01/10 12:22:37;;;;;;;0.40;0.40;;;21.80;99.90;;;;;;5032923;28;20198;-85
2023/01/10 12:25:20;;;;;;;0.82;0.40;;;21.80;99.90;;;;;;5032553;28;20222;-83
2023/01/10 12:27:52;;;;;;;1.25;0.43;;;21.80;99.90;;;;;;5017945;28;20206;-83
2023/01/10 12:30:33;;;;;;;1.13;0.40;;;21.80;99.90;;;;;;5033277;28;20638;-83
2023/01/10 12:33:08;;;;;;;1.67;0.40;;;21.80;99.90;;;;;;5032914;28;20197;-84
2023/01/10 12:35:43;;;;;;;1.65;0.47;;;21.80;99.90;;;;;;5033189;28;20556;-83
2023/01/10 12:44:09;;;;;;;0.77;0.45;;;21.80;99.90;;;;;;5029722;28;20228;-85
2023/01/10 12:44:10;;;;;;;1.10;0.40;;;21.80;99.90;;;;;;5019649;28;20209;-85
2023/01/10 12:46:48;;;;;;;0.98;0.40;;;21.80;99.90;;;;;;5031498;28;20229;-84
2023/01/10 12:49:25;;;;;;;2.90;0.50;;;21.80;99.90;;;;;;5032365;28;20606;-84
2023/01/10 12:51:58;;;;;;;1.85;0.60;;;21.80;99.90;;;;;;5031586;28;20289;-85
2023/01/10 12:54:31;;;;;;;1.45;0.50;;;21.80;99.90;;;;;;5030044;28;20273;-84
2023/01/10 12:57:08;;;;;;;1.58;0.60;;;21.80;99.90;;;;;;5034547;28;20202;-84
2023/01/10 12:59:44;;;;;;;2.03;0.60;;;21.90;99.90;;;;;;5036763;28;20598;-85
2023/01/10 13:02:19;;;;;;;1.13;0.38;;;21.80;99.90;;;;;;5036326;28;20206;-85
2023/01/10 13:04:57;;;;;;;0.50;0.40;;;21.90;99.90;;;;;;5034901;28;20284;-84
2023/01/10 13:07:34;;;;;;;1.55;0.50;;;21.90;99.90;;;;;;5025755;28;20281;-85
2023/01/10 13:10:08;;;;;;;2.35;0.40;;;21.90;99.90;;;;;;5026728;28;20194;-84
2023/01/10 13:12:46;;;;;;;1.10;0.50;;;21.90;99.90;;;;;;5036096;28;20194;-85
2023/01/10 13:15:22;;;;;;;1.63;0.50;;;21.90;99.90;;;;;;5036375;28;20200;-85
2023/01/10 13:17:57;;;;;;;2.65;0.60;;;21.90;99.90;;;;;;5036144;28;20217;-85
2023/01/10 13:20:40;;;;;;;1.58;0.60;;;21.90;99.90;;;;;;5036309;28;20288;-83
2023/01/10 13:23:32;;;;;;;0.90;0.40;;;21.90;99.90;;;;;;5036205;28;20280;-83
2023/01/10 13:26:09;;;;;;;0.95;0.75;;;21.90;99.90;;;;;;5033910;28;20202;-84
2023/01/10 13:28:54;;;;;;;0.85;0.40;;;21.90;99.90;;;;;;5035872;28;20198;-85
2023/01/10 13:31:27;;;;;;;1.20;0.60;;;21.80;99.90;;;;;;5036157;28;20252;-84
2023/01/10 13:34:01;;;;;;;1.00;0.50;;;21.90;99.90;;;;;;5036108;28;20273;-84
2023/01/10 13:36:37;;;;;;;1.80;0.43;;;21.80;99.90;;;;;;5035818;28;20228;-85
2023/01/10 13:39:19;;;;;;;0.63;0.40;;;21.90;99.90;;;;;;5035906;28;20229;-85
2023/01/10 13:45:30;;;;;;;2.53;0.32;;;21.90;99.90;;;;;;5033634;28;20206;-85
2023/01/10 13:48:06;;;;;;;2.08;0.63;;;21.90;99.90;;;;;;5035368;28;20600;-85
2023/01/10 13:50:58;;;;;;;2.30;0.60;;;21.90;99.90;;;;;;5035560;28;20555;-86